sensor_id;sensor_type;location;lat;lon;timestamp;P1;durP1;ratioP1;P2;durP2;ratioP2
3417;SDS011;68007;51.312;12.372;2023-08-20T00:02:11;9.40;;;4.60;;
3417;SDS011;68007;51.312;12.372;2023-08-20T00:04:39;5.57;;;4.50;;
3417;SDS011;68007;51.312;12.372;2023-08-20T00:07:09;5.87;;;4.80;;
3417;SDS011;68007;51.312;12.372;2023-08-20T00:09:37;6.37;;;4.30;;
3417;SDS011;68007;51.312;12.372;2023-08-20T00:12:05;9.40;;;4.67;;
3417;SDS011;68007;51.312;12.372;2023-08-20T00:14:51;7.20;;;4.30;;
3417;SDS011;68007;51.312;12.372;2023-08-20T00:17:20;7.90;;;4.80;;
3417;SDS011;68007;51.312;12.372;2023-08-20T00:19:51;4.93;;;4.53;;
3417;SDS011;68007;51.312;12.372;2023-08-20T00:22:21;6.10;;;4.40;;
3417;SDS011;68007;51.312;12.372;2023-08-20T00:24:49;11.67;;;4.23;;
3417;SDS011;68007;51.312;12.372;2023-08-20T00:27:18;10.77;;;5.13;;
3417;SDS011;68007;51.312;12.372;2023-08-20T00:29:45;5.03;;;4.40;;
3417;SDS011;68007;51.312;12.372;2023-08-20T00:32:14;12.63;;;5.23;;
3417;SDS011;68007;51.312;12.372;2023-08-20T00:34:42;5.23;;;4.73;;
3417;SDS011;68007;51.312;12.372;2023-08-20T00:37:10;5.67;;;4.67;;
3417;SDS011;68007;51.312;12.372;2023-08-20T00:39:39;6.37;;;4.93;;
3417;SDS011;68007;51.312;12.372;2023-08-20T00:42:06;5.60;;;4.63;;
3417;SDS011;68007;51.312;12.372;2023-08-20T00:44:34;6.67;;;5.07;;
3417;SDS011;68007;51.312;12.372;2023-08-20T00:47:02;7.53;;;4.87;;
3417;SDS011;68007;51.312;12.372;2023-08-20T00:49:31;7.27;;;5.10;;
3417;SDS011;68007;51.312;12.372;2023-08-20T00:51:59;7.70;;;5.10;;
3417;SDS011;68007;51.312;12.372;2023-08-20T00:54:28;6.10;;;5.10;;
3417;SDS011;68007;51.312;12.372;2023-08-20T00:56:56;6.00;;;4.70;;
3417;SDS011;68007;51.312;12.372;2023-08-20T00:59:24;5.47;;;4.90;;
3417;SDS011;68007;51.312;12.372;2023-08-20T01:01:52;6.80;;;4.77;;
3417;SDS011;68007;51.312;12.372;2023-08-20T01:04:20;5.07;;;4.20;;
3417;SDS011;68007;51.312;12.372;2023-08-20T01:06:51;7.90;;;4.93;;
3417;SDS011;68007;51.312;12.372;2023-08-20T01:09:31;6.87;;;4.73;;
3417;SDS011;68007;51.312;12.372;2023-08-20T01:12:09;6.57;;;4.93;;
3417;SDS011;68007;51.312;12.372;2023-08-20T01:14:38;6.27;;;4.73;;
3417;SDS011;68007;51.312;12.372;2023-08-20T01:17:05;9.33;;;4.93;;
3417;SDS011;68007;51.312;12.372;2023-08-20T01:19:33;8.93;;;4.83;;
3417;SDS011;68007;51.312;12.372;2023-08-20T01:22:05;7.90;;;4.50;;
3417;SDS011;68007;51.312;12.372;2023-08-20T01:24:50;5.70;;;4.43;;
3417;SDS011;68007;51.312;12.372;2023-08-20T01:27:28;9.40;;;4.40;;
3417;SDS011;68007;51.312;12.372;2023-08-20T01:30:12;5.83;;;4.50;;
3417;SDS011;68007;51.312;12.372;2023-08-20T01:32:40;4.53;;;4.07;;
3417;SDS011;68007;51.312;12.372;2023-08-20T01:35:11;6.20;;;4.47;;
3417;SDS011;68007;51.312;12.372;2023-08-20T01:37:40;6.80;;;5.20;;
3417;SDS011;68007;51.312;12.372;2023-08-20T01:40:08;5.77;;;5.03;;
3417;SDS011;68007;51.312;12.372;2023-08-20T01:42:36;5.20;;;4.70;;
3417;SDS011;68007;51.312;12.372;2023-08-20T01:45:04;6.03;;;5.40;;
3417;SDS011;68007;51.312;12.372;2023-08-20T01:47:34;9.20;;;5.67;;
3417;SDS011;68007;51.312;12.372;2023-08-20T01:50:02;10.20;;;5.73;;
3417;SDS011;68007;51.312;12.372;2023-08-20T01:52:30;7.93;;;5.30;;
3417;SDS011;68007;51.312;12.372;2023-08-20T01:54:57;10.50;;;5.93;;
3417;SDS011;68007;51.312;12.372;2023-08-20T01:57:25;10.70;;;5.53;;
3417;SDS011;68007;51.312;12.372;2023-08-20T01:59:52;6.47;;;5.87;;
3417;SDS011;68007;51.312;12.372;2023-08-20T02:02:20;11.47;;;6.07;;
3417;SDS011;68007;51.312;12.372;2023-08-20T02:04:48;6.63;;;5.50;;
3417;SDS011;68007;51.312;12.372;2023-08-20T02:07:16;10.13;;;5.80;;
3417;SDS011;68007;51.312;12.372;2023-08-20T02:09:44;12.33;;;6.30;;
3417;SDS011;68007;51.312;12.372;2023-08-20T02:12:11;16.43;;;6.73;;
3417;SDS011;68007;51.312;12.372;2023-08-20T02:14:39;9.90;;;6.93;;
3417;SDS011;68007;51.312;12.372;2023-08-20T02:17:06;12.57;;;7.07;;
3417;SDS011;68007;51.312;12.372;2023-08-20T02:19:34;8.10;;;6.13;;
3417;SDS011;68007;51.312;12.372;2023-08-20T02:22:03;8.47;;;6.10;;
3417;SDS011;68007;51.312;12.372;2023-08-20T02:24:31;8.57;;;6.53;;
3417;SDS011;68007;51.312;12.372;2023-08-20T02:26:58;8.07;;;6.70;;
3417;SDS011;68007;51.312;12.372;2023-08-20T02:29:26;9.07;;;6.30;;
3417;SDS011;68007;51.312;12.372;2023-08-20T02:31:53;6.63;;;6.00;;
3417;SDS011;68007;51.312;12.372;2023-08-20T02:34:22;11.23;;;7.20;;
3417;SDS011;68007;51.312;12.372;2023-08-20T02:36:49;13.33;;;7.40;;
3417;SDS011;68007;51.312;12.372;2023-08-20T02:39:18;12.23;;;7.10;;
3417;SDS011;68007;51.312;12.372;2023-08-20T02:41:46;8.60;;;7.70;;
3417;SDS011;68007;51.312;12.372;2023-08-20T02:44:14;7.33;;;5.97;;
3417;SDS011;68007;51.312;12.372;2023-08-20T02:46:41;7.50;;;6.87;;
3417;SDS011;68007;51.312;12.372;2023-08-20T02:49:10;7.87;;;5.97;;
3417;SDS011;68007;51.312;12.372;2023-08-20T02:51:37;7.33;;;6.63;;
3417;SDS011;68007;51.312;12.372;2023-08-20T02:54:07;7.63;;;6.93;;
3417;SDS011;68007;51.312;12.372;2023-08-20T02:56:36;7.13;;;6.10;;
3417;SDS011;68007;51.312;12.372;2023-08-20T02:59:03;8.80;;;6.83;;
3417;SDS011;68007;51.312;12.372;2023-08-20T03:01:31;12.00;;;7.73;;
3417;SDS011;68007;51.312;12.372;2023-08-20T03:03:59;8.00;;;6.60;;
3417;SDS011;68007;51.312;12.372;2023-08-20T03:06:26;7.23;;;6.40;;
3417;SDS011;68007;51.312;12.372;2023-08-20T03:08:54;7.30;;;6.60;;
3417;SDS011;68007;51.312;12.372;2023-08-20T03:11:21;8.23;;;6.90;;
3417;SDS011;68007;51.312;12.372;2023-08-20T03:13:50;10.27;;;6.73;;
3417;SDS011;68007;51.312;12.372;2023-08-20T03:16:18;9.47;;;6.53;;
3417;SDS011;68007;51.312;12.372;2023-08-20T03:18:45;7.40;;;6.30;;
3417;SDS011;68007;51.312;12.372;2023-08-20T03:21:12;9.97;;;6.43;;
3417;SDS011;68007;51.312;12.372;2023-08-20T03:23:40;8.70;;;7.47;;
3417;SDS011;68007;51.312;12.372;2023-08-20T03:26:07;11.57;;;7.50;;
3417;SDS011;68007;51.312;12.372;2023-08-20T03:28:35;11.97;;;7.77;;
3417;SDS011;68007;51.312;12.372;2023-08-20T03:31:04;11.13;;;6.50;;
3417;SDS011;68007;51.312;12.372;2023-08-20T03:33:31;10.63;;;6.90;;
3417;SDS011;68007;51.312;12.372;2023-08-20T03:35:59;11.60;;;7.80;;
3417;SDS011;68007;51.312;12.372;2023-08-20T03:38:26;9.70;;;7.70;;
3417;SDS011;68007;51.312;12.372;2023-08-20T03:40:54;14.30;;;7.37;;
3417;SDS011;68007;51.312;12.372;2023-08-20T03:43:21;7.90;;;6.10;;
3417;SDS011;68007;51.312;12.372;2023-08-20T03:45:49;6.43;;;5.83;;
3417;SDS011;68007;51.312;12.372;2023-08-20T03:48:19;6.13;;;5.40;;
3417;SDS011;68007;51.312;12.372;2023-08-20T03:50:47;9.70;;;7.63;;
3417;SDS011;68007;51.312;12.372;2023-08-20T03:53:14;8.57;;;7.00;;
3417;SDS011;68007;51.312;12.372;2023-08-20T03:55:46;6.93;;;6.20;;
3417;SDS011;68007;51.312;12.372;2023-08-20T03:58:14;6.73;;;6.03;;
3417;SDS011;68007;51.312;12.372;2023-08-20T04:00:42;6.80;;;5.93;;
3417;SDS011;68007;51.312;12.372;2023-08-20T04:03:10;7.07;;;6.37;;
3417;SDS011;68007;51.312;12.372;2023-08-20T04:05:40;9.70;;;6.37;;
3417;SDS011;68007;51.312;12.372;2023-08-20T04:08:07;6.70;;;6.10;;
3417;SDS011;68007;51.312;12.372;2023-08-20T04:10:35;6.87;;;6.23;;
3417;SDS011;68007;51.312;12.372;2023-08-20T04:13:08;7.03;;;6.33;;
3417;SDS011;68007;51.312;12.372;2023-08-20T04:15:36;8.10;;;6.90;;
3417;SDS011;68007;51.312;12.372;2023-08-20T04:18:03;9.43;;;7.07;;
3417;SDS011;68007;51.312;12.372;2023-08-20T04:20:31;6.53;;;6.00;;
3417;SDS011;68007;51.312;12.372;2023-08-20T04:23:00;7.83;;;6.63;;
3417;SDS011;68007;51.312;12.372;2023-08-20T04:25:28;7.97;;;6.70;;
3417;SDS011;68007;51.312;12.372;2023-08-20T04:27:55;11.57;;;7.03;;
3417;SDS011;68007;51.312;12.372;2023-08-20T04:30:23;7.97;;;7.13;;
3417;SDS011;68007;51.312;12.372;2023-08-20T04:32:50;9.27;;;7.10;;
3417;SDS011;68007;51.312;12.372;2023-08-20T04:35:18;9.63;;;7.13;;
3417;SDS011;68007;51.312;12.372;2023-08-20T04:37:45;11.40;;;9.70;;
3417;SDS011;68007;51.312;12.372;2023-08-20T04:40:14;10.13;;;9.10;;
3417;SDS011;68007;51.312;12.372;2023-08-20T04:42:42;9.40;;;8.50;;
3417;SDS011;68007;51.312;12.372;2023-08-20T04:45:09;8.33;;;6.67;;
3417;SDS011;68007;51.312;12.372;2023-08-20T04:47:37;7.90;;;7.13;;
3417;SDS011;68007;51.312;12.372;2023-08-20T04:50:05;11.50;;;8.73;;
3417;SDS011;68007;51.312;12.372;2023-08-20T04:52:33;11.43;;;8.43;;
3417;SDS011;68007;51.312;12.372;2023-08-20T04:55:01;8.87;;;7.97;;
3417;SDS011;68007;51.312;12.372;2023-08-20T04:57:30;9.57;;;8.47;;
3417;SDS011;68007;51.312;12.372;2023-08-20T04:59:58;11.47;;;9.10;;
3417;SDS011;68007;51.312;12.372;2023-08-20T05:02:25;12.87;;;9.67;;
3417;SDS011;68007;51.312;12.372;2023-08-20T05:04:53;12.10;;;10.07;;
3417;SDS011;68007;51.312;12.372;2023-08-20T05:07:20;11.87;;;9.80;;
3417;SDS011;68007;51.312;12.372;2023-08-20T05:09:49;11.77;;;10.27;;
3417;SDS011;68007;51.312;12.372;2023-08-20T05:12:17;10.60;;;9.50;;
3417;SDS011;68007;51.312;12.372;2023-08-20T05:14:45;13.00;;;10.60;;
3417;SDS011;68007;51.312;12.372;2023-08-20T05:17:13;11.97;;;10.67;;
3417;SDS011;68007;51.312;12.372;2023-08-20T05:19:40;13.23;;;10.10;;
3417;SDS011;68007;51.312;12.372;2023-08-20T05:22:08;10.87;;;9.73;;
3417;SDS011;68007;51.312;12.372;2023-08-20T05:24:37;12.27;;;10.37;;
3417;SDS011;68007;51.312;12.372;2023-08-20T05:27:08;10.87;;;9.40;;
3417;SDS011;68007;51.312;12.372;2023-08-20T05:29:37;11.23;;;10.00;;
3417;SDS011;68007;51.312;12.372;2023-08-20T05:32:06;12.47;;;10.67;;
3417;SDS011;68007;51.312;12.372;2023-08-20T05:34:34;11.20;;;10.10;;
3417;SDS011;68007;51.312;12.372;2023-08-20T05:37:02;11.90;;;10.70;;
3417;SDS011;68007;51.312;12.372;2023-08-20T05:39:30;10.57;;;9.57;;
3417;SDS011;68007;51.312;12.372;2023-08-20T05:42:03;12.40;;;10.43;;
3417;SDS011;68007;51.312;12.372;2023-08-20T05:44:31;13.03;;;9.60;;
3417;SDS011;68007;51.312;12.372;2023-08-20T05:46:58;11.70;;;10.50;;
3417;SDS011;68007;51.312;12.372;2023-08-20T05:49:28;14.90;;;9.67;;
3417;SDS011;68007;51.312;12.372;2023-08-20T05:51:55;11.00;;;9.90;;
3417;SDS011;68007;51.312;12.372;2023-08-20T05:54:23;10.67;;;9.63;;
3417;SDS011;68007;51.312;12.372;2023-08-20T05:56:50;12.60;;;11.13;;
3417;SDS011;68007;51.312;12.372;2023-08-20T05:59:18;11.70;;;9.87;;
3417;SDS011;68007;51.312;12.372;2023-08-20T06:01:45;11.07;;;9.80;;
3417;SDS011;68007;51.312;12.372;2023-08-20T06:04:13;10.70;;;9.50;;
3417;SDS011;68007;51.312;12.372;2023-08-20T06:06:42;13.20;;;10.37;;
3417;SDS011;68007;51.312;12.372;2023-08-20T06:09:09;11.93;;;10.47;;
3417;SDS011;68007;51.312;12.372;2023-08-20T06:11:37;9.70;;;8.77;;
3417;SDS011;68007;51.312;12.372;2023-08-20T06:14:04;11.87;;;9.70;;
3417;SDS011;68007;51.312;12.372;2023-08-20T06:16:32;14.67;;;10.00;;
3417;SDS011;68007;51.312;12.372;2023-08-20T06:18:59;12.23;;;9.63;;
3417;SDS011;68007;51.312;12.372;2023-08-20T06:21:27;11.50;;;10.03;;
3417;SDS011;68007;51.312;12.372;2023-08-20T06:23:55;12.27;;;10.97;;
3417;SDS011;68007;51.312;12.372;2023-08-20T06:26:23;11.33;;;10.23;;
3417;SDS011;68007;51.312;12.372;2023-08-20T06:28:50;11.47;;;10.10;;
3417;SDS011;68007;51.312;12.372;2023-08-20T06:31:18;10.87;;;9.77;;
3417;SDS011;68007;51.312;12.372;2023-08-20T06:33:46;15.10;;;11.10;;
3417;SDS011;68007;51.312;12.372;2023-08-20T06:36:14;12.23;;;10.17;;
3417;SDS011;68007;51.312;12.372;2023-08-20T06:38:41;13.80;;;10.30;;
3417;SDS011;68007;51.312;12.372;2023-08-20T06:41:10;11.37;;;10.10;;
3417;SDS011;68007;51.312;12.372;2023-08-20T06:43:38;12.60;;;10.43;;
3417;SDS011;68007;51.312;12.372;2023-08-20T06:46:05;12.47;;;10.27;;
3417;SDS011;68007;51.312;12.372;2023-08-20T06:48:33;11.37;;;9.40;;
3417;SDS011;68007;51.312;12.372;2023-08-20T06:51:07;12.30;;;10.67;;
3417;SDS011;68007;51.312;12.372;2023-08-20T06:53:36;11.53;;;10.17;;
3417;SDS011;68007;51.312;12.372;2023-08-20T06:56:03;11.23;;;10.03;;
3417;SDS011;68007;51.312;12.372;2023-08-20T06:58:32;11.30;;;9.77;;
3417;SDS011;68007;51.312;12.372;2023-08-20T07:01:00;10.77;;;9.67;;
3417;SDS011;68007;51.312;12.372;2023-08-20T07:03:32;10.50;;;9.20;;
3417;SDS011;68007;51.312;12.372;2023-08-20T07:06:00;10.97;;;9.67;;
3417;SDS011;68007;51.312;12.372;2023-08-20T07:08:28;11.27;;;10.07;;
3417;SDS011;68007;51.312;12.372;2023-08-20T07:10:56;10.77;;;9.67;;
3417;SDS011;68007;51.312;12.372;2023-08-20T07:13:23;10.53;;;8.90;;
3417;SDS011;68007;51.312;12.372;2023-08-20T07:15:52;12.57;;;10.43;;
3417;SDS011;68007;51.312;12.372;2023-08-20T07:18:20;10.67;;;9.60;;
3417;SDS011;68007;51.312;12.372;2023-08-20T07:20:47;10.83;;;9.30;;
3417;SDS011;68007;51.312;12.372;2023-08-20T07:23:16;10.60;;;9.30;;
3417;SDS011;68007;51.312;12.372;2023-08-20T07:25:44;13.43;;;9.67;;
3417;SDS011;68007;51.312;12.372;2023-08-20T07:28:12;14.20;;;9.20;;
3417;SDS011;68007;51.312;12.372;2023-08-20T07:30:40;10.07;;;9.07;;
3417;SDS011;68007;51.312;12.372;2023-08-20T07:33:09;9.83;;;8.80;;
3417;SDS011;68007;51.312;12.372;2023-08-20T07:35:36;9.50;;;8.60;;
3417;SDS011;68007;51.312;12.372;2023-08-20T07:38:04;10.20;;;9.20;;
3417;SDS011;68007;51.312;12.372;2023-08-20T07:40:31;9.90;;;8.90;;
3417;SDS011;68007;51.312;12.372;2023-08-20T07:42:59;12.93;;;8.97;;
3417;SDS011;68007;51.312;12.372;2023-08-20T07:45:26;9.70;;;8.80;;
3417;SDS011;68007;51.312;12.372;2023-08-20T07:47:54;9.53;;;8.63;;
3417;SDS011;68007;51.312;12.372;2023-08-20T07:50:23;11.17;;;9.00;;
3417;SDS011;68007;51.312;12.372;2023-08-20T07:52:50;10.00;;;9.00;;
3417;SDS011;68007;51.312;12.372;2023-08-20T07:55:18;9.67;;;8.70;;
3417;SDS011;68007;51.312;12.372;2023-08-20T07:57:45;11.13;;;9.40;;
3417;SDS011;68007;51.312;12.372;2023-08-20T08:00:15;8.60;;;7.70;;
3417;SDS011;68007;51.312;12.372;2023-08-20T08:02:43;10.70;;;8.70;;
3417;SDS011;68007;51.312;12.372;2023-08-20T08:05:11;12.43;;;8.83;;
3417;SDS011;68007;51.312;12.372;2023-08-20T08:07:41;11.17;;;7.63;;
3417;SDS011;68007;51.312;12.372;2023-08-20T08:10:09;8.33;;;7.00;;
3417;SDS011;68007;51.312;12.372;2023-08-20T08:12:36;7.33;;;6.73;;
3417;SDS011;68007;51.312;12.372;2023-08-20T08:15:04;18.00;;;6.63;;
3417;SDS011;68007;51.312;12.372;2023-08-20T08:17:32;6.93;;;6.23;;
3417;SDS011;68007;51.312;12.372;2023-08-20T08:19:59;16.13;;;6.93;;
3417;SDS011;68007;51.312;12.372;2023-08-20T08:22:27;12.40;;;7.20;;
3417;SDS011;68007;51.312;12.372;2023-08-20T08:24:56;10.20;;;6.90;;
3417;SDS011;68007;51.312;12.372;2023-08-20T08:27:23;7.20;;;6.23;;
3417;SDS011;68007;51.312;12.372;2023-08-20T08:29:51;10.00;;;6.00;;
3417;SDS011;68007;51.312;12.372;2023-08-20T08:32:18;9.93;;;6.80;;
3417;SDS011;68007;51.312;12.372;2023-08-20T08:34:46;9.37;;;6.70;;
3417;SDS011;68007;51.312;12.372;2023-08-20T08:37:13;6.70;;;6.10;;
3417;SDS011;68007;51.312;12.372;2023-08-20T08:39:41;11.70;;;7.10;;
3417;SDS011;68007;51.312;12.372;2023-08-20T08:42:10;7.90;;;6.33;;
3417;SDS011;68007;51.312;12.372;2023-08-20T08:44:39;7.20;;;6.50;;
3417;SDS011;68007;51.312;12.372;2023-08-20T08:47:07;7.00;;;6.30;;
3417;SDS011;68007;51.312;12.372;2023-08-20T08:49:35;8.27;;;7.00;;
3417;SDS011;68007;51.312;12.372;2023-08-20T08:52:03;7.73;;;6.93;;
3417;SDS011;68007;51.312;12.372;2023-08-20T08:54:32;8.80;;;7.57;;
3417;SDS011;68007;51.312;12.372;2023-08-20T08:57:00;7.63;;;6.50;;
3417;SDS011;68007;51.312;12.372;2023-08-20T08:59:29;7.93;;;6.97;;
3417;SDS011;68007;51.312;12.372;2023-08-20T09:01:57;6.63;;;6.03;;
3417;SDS011;68007;51.312;12.372;2023-08-20T09:04:25;6.90;;;6.20;;
3417;SDS011;68007;51.312;12.372;2023-08-20T09:06:53;9.50;;;6.80;;
3417;SDS011;68007;51.312;12.372;2023-08-20T09:09:23;10.40;;;6.50;;
3417;SDS011;68007;51.312;12.372;2023-08-20T09:11:50;7.37;;;6.67;;
3417;SDS011;68007;51.312;12.372;2023-08-20T09:14:21;7.73;;;6.90;;
3417;SDS011;68007;51.312;12.372;2023-08-20T09:16:55;9.17;;;5.90;;
3417;SDS011;68007;51.312;12.372;2023-08-20T09:19:23;8.10;;;7.10;;
3417;SDS011;68007;51.312;12.372;2023-08-20T09:21:51;7.37;;;6.67;;
3417;SDS011;68007;51.312;12.372;2023-08-20T09:24:26;6.70;;;6.10;;
3417;SDS011;68007;51.312;12.372;2023-08-20T09:26:59;7.10;;;6.40;;
3417;SDS011;68007;51.312;12.372;2023-08-20T09:29:26;6.83;;;6.10;;
3417;SDS011;68007;51.312;12.372;2023-08-20T09:32:01;7.10;;;6.50;;
3417;SDS011;68007;51.312;12.372;2023-08-20T09:37:15;7.20;;;5.97;;
3417;SDS011;68007;51.312;12.372;2023-08-20T09:39:44;7.03;;;6.33;;
3417;SDS011;68007;51.312;12.372;2023-08-20T09:42:12;9.10;;;6.97;;
3417;SDS011;68007;51.312;12.372;2023-08-20T09:44:41;8.40;;;7.00;;
3417;SDS011;68007;51.312;12.372;2023-08-20T09:47:12;9.30;;;7.00;;
3417;SDS011;68007;51.312;12.372;2023-08-20T09:49:41;8.60;;;7.20;;
3417;SDS011;68007;51.312;12.372;2023-08-20T09:52:11;8.93;;;7.63;;
3417;SDS011;68007;51.312;12.372;2023-08-20T09:54:49;13.10;;;6.70;;
3417;SDS011;68007;51.312;12.372;2023-08-20T09:57:31;9.10;;;6.63;;
3417;SDS011;68007;51.312;12.372;2023-08-20T10:00:00;9.60;;;7.50;;
3417;SDS011;68007;51.312;12.372;2023-08-20T10:02:32;7.80;;;6.73;;
3417;SDS011;68007;51.312;12.372;2023-08-20T10:05:00;6.87;;;6.27;;
3417;SDS011;68007;51.312;12.372;2023-08-20T10:07:29;8.13;;;7.33;;
3417;SDS011;68007;51.312;12.372;2023-08-20T10:09:58;9.10;;;7.17;;
3417;SDS011;68007;51.312;12.372;2023-08-20T10:12:27;7.50;;;6.80;;
3417;SDS011;68007;51.312;12.372;2023-08-20T10:14:55;7.20;;;6.50;;
3417;SDS011;68007;51.312;12.372;2023-08-20T10:17:23;7.33;;;6.43;;
3417;SDS011;68007;51.312;12.372;2023-08-20T10:19:52;6.87;;;6.00;;
3417;SDS011;68007;51.312;12.372;2023-08-20T10:22:20;6.40;;;5.80;;
3417;SDS011;68007;51.312;12.372;2023-08-20T10:24:48;7.03;;;6.40;;
3417;SDS011;68007;51.312;12.372;2023-08-20T10:27:24;7.40;;;6.33;;
3417;SDS011;68007;51.312;12.372;2023-08-20T10:29:53;5.87;;;5.17;;
3417;SDS011;68007;51.312;12.372;2023-08-20T10:32:43;7.70;;;6.90;;
3417;SDS011;68007;51.312;12.372;2023-08-20T10:35:14;7.57;;;6.80;;
3417;SDS011;68007;51.312;12.372;2023-08-20T10:38:01;7.93;;;7.23;;
3417;SDS011;68007;51.312;12.372;2023-08-20T10:40:48;7.07;;;6.47;;
3417;SDS011;68007;51.312;12.372;2023-08-20T10:43:28;6.47;;;5.73;;
3417;SDS011;68007;51.312;12.372;2023-08-20T10:46:05;7.80;;;7.00;;
3417;SDS011;68007;51.312;12.372;2023-08-20T10:48:44;10.73;;;6.70;;
3417;SDS011;68007;51.312;12.372;2023-08-20T10:51:16;7.50;;;6.80;;
3417;SDS011;68007;51.312;12.372;2023-08-20T10:53:48;7.40;;;6.70;;
3417;SDS011;68007;51.312;12.372;2023-08-20T10:56:39;6.67;;;6.00;;
3417;SDS011;68007;51.312;12.372;2023-08-20T10:59:09;6.87;;;6.27;;
3417;SDS011;68007;51.312;12.372;2023-08-20T11:01:42;7.00;;;5.90;;
3417;SDS011;68007;51.312;12.372;2023-08-20T11:04:11;7.20;;;6.50;;
3417;SDS011;68007;51.312;12.372;2023-08-20T11:06:42;7.10;;;6.23;;
3417;SDS011;68007;51.312;12.372;2023-08-20T11:09:10;7.13;;;6.47;;
3417;SDS011;68007;51.312;12.372;2023-08-20T11:11:37;7.80;;;6.70;;
3417;SDS011;68007;51.312;12.372;2023-08-20T11:14:06;7.27;;;6.47;;
3417;SDS011;68007;51.312;12.372;2023-08-20T11:16:34;8.00;;;7.20;;
3417;SDS011;68007;51.312;12.372;2023-08-20T11:19:02;7.20;;;6.50;;
3417;SDS011;68007;51.312;12.372;2023-08-20T11:21:34;7.50;;;6.50;;
3417;SDS011;68007;51.312;12.372;2023-08-20T11:24:03;6.73;;;5.73;;
3417;SDS011;68007;51.312;12.372;2023-08-20T11:26:32;7.40;;;6.20;;
3417;SDS011;68007;51.312;12.372;2023-08-20T11:29:00;7.60;;;6.30;;
3417;SDS011;68007;51.312;12.372;2023-08-20T11:31:27;7.67;;;6.50;;
3417;SDS011;68007;51.312;12.372;2023-08-20T11:33:56;7.37;;;6.57;;
3417;SDS011;68007;51.312;12.372;2023-08-20T11:36:24;8.03;;;6.53;;
3417;SDS011;68007;51.312;12.372;2023-08-20T11:38:52;7.50;;;6.80;;
3417;SDS011;68007;51.312;12.372;2023-08-20T11:41:21;7.47;;;6.77;;
3417;SDS011;68007;51.312;12.372;2023-08-20T11:43:51;7.10;;;6.40;;
3417;SDS011;68007;51.312;12.372;2023-08-20T11:46:19;11.43;;;7.63;;
3417;SDS011;68007;51.312;12.372;2023-08-20T11:49:00;8.60;;;6.63;;
3417;SDS011;68007;51.312;12.372;2023-08-20T11:51:30;6.63;;;6.03;;
3417;SDS011;68007;51.312;12.372;2023-08-20T11:54:01;7.90;;;6.67;;
3417;SDS011;68007;51.312;12.372;2023-08-20T11:56:33;8.63;;;6.73;;
3417;SDS011;68007;51.312;12.372;2023-08-20T11:59:01;8.37;;;7.13;;
3417;SDS011;68007;51.312;12.372;2023-08-20T12:01:30;6.87;;;6.17;;
3417;SDS011;68007;51.312;12.372;2023-08-20T12:04:00;6.40;;;5.80;;
3417;SDS011;68007;51.312;12.372;2023-08-20T12:06:29;6.70;;;6.10;;
3417;SDS011;68007;51.312;12.372;2023-08-20T12:08:57;8.10;;;6.90;;
3417;SDS011;68007;51.312;12.372;2023-08-20T12:11:25;7.40;;;6.20;;
3417;SDS011;68007;51.312;12.372;2023-08-20T12:13:54;6.77;;;6.17;;
3417;SDS011;68007;51.312;12.372;2023-08-20T12:16:23;7.23;;;6.53;;
3417;SDS011;68007;51.312;12.372;2023-08-20T12:18:51;8.43;;;6.50;;
3417;SDS011;68007;51.312;12.372;2023-08-20T12:21:19;6.97;;;6.10;;
3417;SDS011;68007;51.312;12.372;2023-08-20T12:23:47;6.40;;;5.80;;
3417;SDS011;68007;51.312;12.372;2023-08-20T12:26:14;9.97;;;6.50;;
3417;SDS011;68007;51.312;12.372;2023-08-20T12:28:42;10.37;;;6.40;;
3417;SDS011;68007;51.312;12.372;2023-08-20T12:31:11;9.27;;;6.40;;
3417;SDS011;68007;51.312;12.372;2023-08-20T12:33:38;11.23;;;6.43;;
3417;SDS011;68007;51.312;12.372;2023-08-20T12:36:06;6.10;;;5.50;;
3417;SDS011;68007;51.312;12.372;2023-08-20T12:38:33;7.27;;;6.30;;
3417;SDS011;68007;51.312;12.372;2023-08-20T12:41:01;7.70;;;6.63;;
3417;SDS011;68007;51.312;12.372;2023-08-20T12:43:30;6.70;;;6.10;;
3417;SDS011;68007;51.312;12.372;2023-08-20T12:45:57;6.27;;;5.60;;
3417;SDS011;68007;51.312;12.372;2023-08-20T12:48:26;6.80;;;6.00;;
3417;SDS011;68007;51.312;12.372;2023-08-20T12:50:54;6.60;;;5.93;;
3417;SDS011;68007;51.312;12.372;2023-08-20T12:53:21;6.27;;;5.67;;
3417;SDS011;68007;51.312;12.372;2023-08-20T12:55:49;8.80;;;6.10;;
3417;SDS011;68007;51.312;12.372;2023-08-20T12:58:16;8.17;;;6.53;;
3417;SDS011;68007;51.312;12.372;2023-08-20T13:00:44;6.40;;;5.80;;
3417;SDS011;68007;51.312;12.372;2023-08-20T13:03:11;5.97;;;5.30;;
3417;SDS011;68007;51.312;12.372;2023-08-20T13:05:41;5.93;;;5.40;;
3417;SDS011;68007;51.312;12.372;2023-08-20T13:08:09;6.43;;;5.83;;
3417;SDS011;68007;51.312;12.372;2023-08-20T13:10:38;6.77;;;4.87;;
3417;SDS011;68007;51.312;12.372;2023-08-20T13:13:08;5.60;;;5.00;;
3417;SDS011;68007;51.312;12.372;2023-08-20T13:15:37;11.43;;;5.87;;
3417;SDS011;68007;51.312;12.372;2023-08-20T13:18:06;7.13;;;5.80;;
3417;SDS011;68007;51.312;12.372;2023-08-20T13:20:34;7.63;;;6.30;;
3417;SDS011;68007;51.312;12.372;2023-08-20T13:23:03;9.40;;;5.97;;
3417;SDS011;68007;51.312;12.372;2023-08-20T13:25:31;6.10;;;5.50;;
3417;SDS011;68007;51.312;12.372;2023-08-20T13:27:58;5.90;;;5.30;;
3417;SDS011;68007;51.312;12.372;2023-08-20T13:30:26;8.03;;;5.87;;
3417;SDS011;68007;51.312;12.372;2023-08-20T13:32:54;6.60;;;5.27;;
3417;SDS011;68007;51.312;12.372;2023-08-20T13:35:21;8.00;;;5.90;;
3417;SDS011;68007;51.312;12.372;2023-08-20T13:37:49;7.70;;;5.80;;
3417;SDS011;68007;51.312;12.372;2023-08-20T13:40:19;6.23;;;5.73;;
3417;SDS011;68007;51.312;12.372;2023-08-20T13:42:47;5.37;;;4.87;;
3417;SDS011;68007;51.312;12.372;2023-08-20T13:45:15;6.20;;;5.60;;
3417;SDS011;68007;51.312;12.372;2023-08-20T13:47:42;9.00;;;5.67;;
3417;SDS011;68007;51.312;12.372;2023-08-20T13:50:10;8.60;;;6.17;;
3417;SDS011;68007;51.312;12.372;2023-08-20T13:52:38;7.27;;;5.90;;
3417;SDS011;68007;51.312;12.372;2023-08-20T13:55:06;6.40;;;5.50;;
3417;SDS011;68007;51.312;12.372;2023-08-20T13:57:35;7.63;;;5.63;;
3417;SDS011;68007;51.312;12.372;2023-08-20T14:00:03;9.10;;;5.10;;
3417;SDS011;68007;51.312;12.372;2023-08-20T14:02:34;6.23;;;5.63;;
3417;SDS011;68007;51.312;12.372;2023-08-20T14:05:02;8.47;;;6.57;;
3417;SDS011;68007;51.312;12.372;2023-08-20T14:07:31;11.90;;;8.20;;
3417;SDS011;68007;51.312;12.372;2023-08-20T14:09:59;6.27;;;5.67;;
3417;SDS011;68007;51.312;12.372;2023-08-20T14:12:28;5.73;;;5.13;;
3417;SDS011;68007;51.312;12.372;2023-08-20T14:14:57;7.33;;;5.53;;
3417;SDS011;68007;51.312;12.372;2023-08-20T14:17:25;5.40;;;4.90;;
3417;SDS011;68007;51.312;12.372;2023-08-20T14:19:54;6.70;;;5.33;;
3417;SDS011;68007;51.312;12.372;2023-08-20T14:22:21;7.87;;;4.80;;
3417;SDS011;68007;51.312;12.372;2023-08-20T14:24:49;5.90;;;5.27;;
3417;SDS011;68007;51.312;12.372;2023-08-20T14:27:17;5.90;;;5.40;;
3417;SDS011;68007;51.312;12.372;2023-08-20T14:29:45;6.10;;;5.10;;
3417;SDS011;68007;51.312;12.372;2023-08-20T14:32:14;6.27;;;4.90;;
3417;SDS011;68007;51.312;12.372;2023-08-20T14:34:41;5.87;;;5.27;;
3417;SDS011;68007;51.312;12.372;2023-08-20T14:37:09;5.23;;;4.83;;
3417;SDS011;68007;51.312;12.372;2023-08-20T14:39:39;9.40;;;5.30;;
3417;SDS011;68007;51.312;12.372;2023-08-20T14:42:06;6.93;;;5.33;;
3417;SDS011;68007;51.312;12.372;2023-08-20T14:44:34;5.97;;;4.60;;
3417;SDS011;68007;51.312;12.372;2023-08-20T14:47:02;5.20;;;4.73;;
3417;SDS011;68007;51.312;12.372;2023-08-20T14:49:31;10.70;;;4.70;;
3417;SDS011;68007;51.312;12.372;2023-08-20T14:51:59;7.73;;;5.00;;
3417;SDS011;68007;51.312;12.372;2023-08-20T14:54:26;5.90;;;4.73;;
3417;SDS011;68007;51.312;12.372;2023-08-20T14:56:54;5.47;;;5.00;;